createdAt,value
2023-04-28T00:00:39.353Z,24.63
2023-04-28T00:01:39.394Z,24.69
2023-04-28T00:02:39.439Z,24.61
2023-04-28T00:03:39.619Z,24.71
2023-04-28T00:04:39.491Z,24.63
2023-04-28T00:05:39.551Z,24.64
2023-04-28T00:06:39.496Z,24.63
2023-04-28T00:07:39.538Z,24.66
2023-04-28T00:08:39.578Z,24.64
2023-04-28T00:09:39.574Z,24.63
2023-04-28T00:10:39.589Z,24.63
2023-04-28T00:11:39.629Z,24.60
2023-04-28T00:12:39.659Z,24.63
2023-04-28T00:13:39.720Z,24.63
2023-04-28T00:14:39.701Z,24.66
2023-04-28T00:15:39.756Z,24.63
2023-04-28T00:16:39.899Z,24.64
2023-04-28T00:17:39.880Z,24.62
2023-04-28T00:18:39.847Z,24.64
2023-04-28T00:19:39.888Z,24.67
2023-04-28T00:20:39.929Z,24.61
2023-04-28T00:21:39.940Z,24.62
2023-04-28T00:22:39.985Z,24.64
2023-04-28T00:23:40.061Z,24.61
2023-04-28T00:24:40.032Z,24.60
2023-04-28T00:25:40.065Z,24.64
2023-04-28T00:26:40.083Z,24.58
2023-04-28T00:27:40.134Z,24.61
2023-04-28T00:28:40.176Z,24.60
2023-04-28T00:29:40.208Z,24.60
2023-04-28T00:30:40.214Z,24.57
2023-04-28T00:31:40.308Z,24.60
2023-04-28T00:32:40.361Z,24.60
2023-04-28T00:33:40.314Z,24.61
2023-04-28T00:34:40.370Z,24.55
2023-04-28T00:35:40.378Z,24.55
2023-04-28T00:36:40.418Z,24.55
2023-04-28T00:37:40.440Z,24.58
2023-04-28T00:38:40.440Z,24.63
2023-04-28T00:39:40.495Z,24.58
2023-04-28T00:40:40.517Z,24.60
2023-04-28T00:41:40.531Z,24.57
2023-04-28T00:42:40.579Z,24.61
2023-04-28T00:43:40.590Z,24.53
2023-04-28T00:44:40.604Z,24.56
2023-04-28T00:45:40.655Z,24.58
2023-04-28T00:46:40.622Z,24.58
2023-04-28T00:47:40.679Z,24.56
2023-04-28T00:48:40.680Z,24.58
2023-04-28T00:49:40.693Z,24.58
2023-04-28T00:50:40.699Z,24.57
2023-04-28T00:51:40.739Z,24.54
2023-04-28T00:52:40.756Z,24.58
2023-04-28T00:53:40.796Z,24.57
2023-04-28T00:54:40.824Z,24.55
2023-04-28T00:55:40.863Z,24.57
2023-04-28T00:56:40.915Z,24.53
2023-04-28T00:57:40.923Z,24.58
2023-04-28T00:58:40.945Z,24.54
2023-04-28T00:59:41.438Z,24.54
2023-04-28T01:00:41.005Z,24.61
2023-04-28T01:01:41.180Z,24.57
2023-04-28T01:02:41.202Z,24.57
2023-04-28T01:03:41.519Z,24.61
2023-04-28T01:04:41.228Z,24.65
2023-04-28T01:05:41.194Z,24.65
2023-04-28T01:06:41.225Z,24.64
2023-04-28T01:07:41.234Z,24.65
2023-04-28T01:08:41.262Z,24.62
2023-04-28T01:09:41.309Z,24.68
2023-04-28T01:10:41.337Z,24.71
2023-04-28T01:11:41.362Z,24.66
2023-04-28T01:12:41.409Z,24.69
2023-04-28T01:13:41.446Z,24.65
2023-04-28T01:14:41.503Z,24.71
2023-04-28T01:15:41.521Z,24.71
2023-04-28T01:16:41.650Z,24.71
2023-04-28T01:17:41.636Z,24.75
2023-04-28T01:18:41.638Z,24.72
2023-04-28T01:19:41.659Z,24.71
2023-04-28T01:20:41.721Z,24.73
2023-04-28T01:21:41.750Z,24.78
2023-04-28T01:22:41.806Z,24.72
2023-04-28T01:23:41.824Z,24.71
2023-04-28T01:24:41.832Z,24.78
2023-04-28T01:25:41.896Z,24.78
2023-04-28T01:26:41.951Z,24.76
2023-04-28T01:27:41.965Z,24.79
2023-04-28T01:28:42.016Z,24.80
2023-04-28T01:29:42.016Z,24.80
2023-04-28T01:30:42.049Z,24.81
2023-04-28T01:31:42.119Z,24.82
2023-04-28T01:32:42.134Z,24.79
2023-04-28T01:33:42.200Z,24.79
2023-04-28T01:34:42.224Z,24.83
2023-04-28T01:35:42.261Z,24.86
2023-04-28T01:36:42.329Z,24.89
2023-04-28T01:37:42.328Z,24.83
2023-04-28T01:38:42.365Z,24.84
2023-04-28T01:39:42.404Z,24.82
2023-04-28T01:40:42.447Z,24.87
2023-04-28T01:41:42.483Z,24.84
2023-04-28T01:42:42.521Z,24.89
2023-04-28T01:43:42.571Z,24.92
2023-04-28T01:44:42.610Z,24.89
2023-04-28T01:45:42.650Z,24.92
2023-04-28T01:46:42.703Z,24.84
2023-04-28T01:47:42.797Z,24.89
2023-04-28T01:48:42.739Z,24.83
2023-04-28T01:49:42.815Z,24.80
2023-04-28T01:50:42.853Z,24.86
2023-04-28T01:51:42.881Z,24.83
2023-04-28T01:52:42.946Z,24.80
2023-04-28T01:53:42.994Z,24.78
2023-04-28T01:54:43.019Z,24.78
2023-04-28T01:55:43.091Z,24.82
2023-04-28T01:56:43.118Z,24.83
2023-04-28T01:57:43.174Z,24.87
2023-04-28T01:58:43.179Z,24.83
2023-04-28T01:59:43.245Z,24.80
2023-04-28T02:00:43.300Z,24.83
2023-04-28T02:01:43.328Z,24.86
2023-04-28T02:02:43.417Z,24.86
2023-04-28T02:03:43.475Z,24.83
2023-04-28T02:04:43.499Z,24.84
2023-04-28T02:05:43.448Z,24.82
2023-04-28T02:06:43.599Z,24.83
2023-04-28T02:07:43.577Z,24.83
2023-04-28T02:08:43.609Z,24.86
2023-04-28T02:09:43.641Z,24.80
2023-04-28T02:10:43.669Z,24.79
2023-04-28T02:11:43.682Z,24.83
2023-04-28T02:12:43.746Z,24.81
2023-04-28T02:13:43.822Z,24.81
2023-04-28T02:14:43.830Z,24.86
2023-04-28T02:15:43.932Z,24.86
2023-04-28T02:16:43.874Z,24.81
2023-04-28T02:17:43.943Z,24.81
2023-04-28T02:18:43.949Z,24.84
2023-04-28T02:19:44.016Z,24.87
2023-04-28T02:20:44.045Z,24.88
2023-04-28T02:21:44.090Z,24.86
2023-04-28T02:22:44.121Z,24.87
2023-04-28T02:23:44.158Z,24.84
2023-04-28T02:24:44.201Z,24.89
2023-04-28T02:25:44.237Z,24.88
2023-04-28T02:26:44.238Z,24.87
2023-04-28T02:27:44.327Z,24.93
2023-04-28T02:28:44.377Z,24.95
2023-04-28T02:29:44.389Z,24.90
2023-04-28T02:30:44.419Z,24.94
2023-04-28T02:31:44.435Z,24.94
2023-04-28T02:32:45.010Z,24.94
2023-04-28T02:33:44.535Z,24.91
2023-04-28T02:34:44.535Z,24.91
2023-04-28T02:35:44.577Z,24.96
2023-04-28T02:36:44.638Z,24.94
2023-04-28T02:37:44.664Z,24.94
2023-04-28T02:38:44.699Z,24.93
2023-04-28T02:39:44.734Z,24.98
2023-04-28T02:40:44.797Z,25.01
2023-04-28T02:41:44.829Z,25.02
2023-04-28T02:42:44.958Z,25.02
2023-04-28T02:43:44.881Z,25.01
2023-04-28T02:44:44.968Z,24.98
2023-04-28T02:45:44.995Z,25.01
2023-04-28T02:46:45.122Z,25.06
2023-04-28T02:47:45.122Z,24.98
2023-04-28T02:48:45.139Z,25.05
2023-04-28T02:49:45.160Z,25.01
2023-04-28T02:50:45.218Z,25.04
2023-04-28T02:51:45.251Z,25.04
2023-04-28T02:52:47.046Z,25.04
2023-04-28T02:53:45.275Z,25.04
2023-04-28T02:54:45.276Z,25.04
2023-04-28T02:55:45.257Z,25.06
2023-04-28T02:56:45.263Z,24.98
2023-04-28T02:57:45.253Z,25.09
2023-04-28T02:58:45.247Z,25.11
2023-04-28T02:59:45.254Z,25.11
2023-04-28T03:00:45.271Z,25.11
2023-04-28T03:01:45.331Z,25.11
2023-04-28T03:02:45.280Z,25.05
2023-04-28T03:03:45.321Z,25.14
2023-04-28T03:04:45.320Z,25.14
2023-04-28T03:05:45.193Z,25.19
2023-04-28T03:06:45.226Z,25.20
2023-04-28T03:07:45.189Z,25.20
2023-04-28T03:08:45.178Z,25.22
2023-04-28T03:09:45.162Z,25.22
2023-04-28T03:10:45.168Z,25.22
2023-04-28T03:11:45.172Z,25.26
2023-04-28T03:12:45.148Z,25.29
2023-04-28T03:13:45.179Z,25.27
2023-04-28T03:14:45.174Z,25.29
2023-04-28T03:15:45.122Z,25.26
2023-04-28T03:16:45.231Z,25.29
2023-04-28T03:17:45.133Z,25.30
2023-04-28T03:18:45.110Z,25.27
2023-04-28T03:19:45.116Z,25.34
2023-04-28T03:20:45.064Z,25.23
2023-04-28T03:21:45.086Z,25.31
2023-04-28T03:22:45.062Z,25.30
2023-04-28T03:23:45.071Z,25.35
2023-04-28T03:24:45.053Z,25.34
2023-04-28T03:25:45.034Z,25.31
2023-04-28T03:26:45.054Z,25.33
2023-04-28T03:27:45.022Z,25.40
2023-04-28T03:28:45.038Z,25.35
2023-04-28T03:29:45.017Z,25.38
2023-04-28T03:30:45.017Z,25.38
2023-04-28T03:31:45.025Z,25.40
2023-04-28T03:32:45.018Z,25.40
2023-04-28T03:33:44.997Z,25.40
2023-04-28T03:34:45.012Z,25.41
2023-04-28T03:35:45.000Z,25.37
2023-04-28T03:36:44.954Z,25.37
2023-04-28T03:37:44.980Z,25.41
2023-04-28T03:38:44.981Z,25.36
2023-04-28T03:39:44.960Z,25.44
2023-04-28T03:40:44.909Z,25.40
2023-04-28T03:41:44.977Z,25.30
2023-04-28T03:42:44.999Z,25.36
2023-04-28T03:43:45.078Z,25.36
2023-04-28T03:44:45.089Z,25.36
2023-04-28T03:45:45.128Z,25.30
2023-04-28T03:46:45.150Z,25.30
2023-04-28T03:47:45.225Z,25.29
2023-04-28T03:48:45.243Z,25.28
2023-04-28T03:49:45.310Z,25.21
2023-04-28T03:50:45.319Z,25.22
2023-04-28T03:51:45.330Z,25.22
2023-04-28T03:52:45.389Z,25.18
2023-04-28T03:53:45.388Z,25.26
2023-04-28T03:54:45.436Z,25.20
2023-04-28T03:55:45.458Z,25.15
2023-04-28T03:56:45.466Z,25.16
2023-04-28T03:57:45.983Z,25.15
2023-04-28T03:58:45.479Z,25.10
2023-04-28T03:59:45.488Z,25.13
2023-04-28T04:00:45.515Z,25.12
2023-04-28T04:01:45.529Z,25.09
2023-04-28T04:02:45.704Z,25.09
2023-04-28T04:03:45.686Z,25.01
2023-04-28T04:04:45.647Z,25.08
2023-04-28T04:05:45.712Z,25.04
2023-04-28T04:06:45.619Z,25.02
2023-04-28T04:07:45.612Z,25.00
2023-04-28T04:08:45.633Z,25.00
2023-04-28T04:09:45.626Z,25.01
2023-04-28T04:10:45.630Z,24.97
2023-04-28T04:11:45.648Z,25.00
2023-04-28T04:12:45.647Z,25.01
2023-04-28T04:13:45.690Z,24.98
2023-04-28T04:14:45.698Z,24.98
2023-04-28T04:15:45.715Z,24.96
2023-04-28T04:16:45.656Z,24.96
2023-04-28T04:17:45.693Z,24.93
2023-04-28T04:18:45.700Z,24.92
2023-04-28T04:19:45.673Z,24.92
2023-04-28T04:20:45.679Z,24.96
2023-04-28T04:21:45.686Z,24.89
2023-04-28T04:22:45.650Z,24.88
2023-04-28T04:23:45.664Z,24.86
2023-04-28T04:24:45.670Z,24.86
2023-04-28T04:25:45.724Z,24.86
2023-04-28T04:26:45.644Z,24.85
2023-04-28T04:27:45.689Z,24.83
2023-04-28T04:28:45.639Z,24.78
2023-04-28T04:29:45.668Z,24.78
2023-04-28T04:30:45.664Z,24.74
2023-04-28T04:31:45.760Z,24.79
2023-04-28T04:32:45.688Z,24.77
2023-04-28T04:33:45.669Z,24.75
2023-04-28T04:34:45.663Z,24.75
2023-04-28T04:35:45.684Z,24.70
2023-04-28T04:36:45.663Z,24.73
2023-04-28T04:37:45.674Z,24.77
2023-04-28T04:38:45.686Z,24.75
2023-04-28T04:39:45.722Z,24.75
2023-04-28T04:40:45.739Z,24.66
2023-04-28T04:41:45.743Z,24.61
2023-04-28T04:42:45.741Z,24.67
2023-04-28T04:43:45.794Z,24.62
2023-04-28T04:44:45.829Z,24.73
2023-04-28T04:45:45.837Z,24.71
2023-04-28T04:46:45.948Z,24.68
2023-04-28T04:47:46.002Z,24.60
2023-04-28T04:48:45.953Z,24.63
2023-04-28T04:49:45.992Z,24.64
2023-04-28T04:50:46.019Z,24.66
2023-04-28T04:51:46.053Z,24.74
2023-04-28T04:52:46.125Z,24.76
2023-04-28T04:53:46.183Z,24.67
2023-04-28T04:54:46.156Z,24.76
2023-04-28T04:55:46.165Z,24.74
2023-04-28T04:56:46.177Z,24.63
2023-04-28T04:57:46.186Z,24.67
2023-04-28T04:58:46.166Z,24.80
2023-04-28T04:59:46.225Z,24.71
2023-04-28T05:00:46.212Z,24.71
2023-04-28T05:01:46.195Z,24.73
2023-04-28T05:02:46.344Z,24.74
2023-04-28T05:03:46.320Z,24.73
2023-04-28T05:04:46.321Z,24.75
2023-04-28T05:05:46.440Z,24.73
2023-04-28T05:06:46.210Z,24.70
2023-04-28T05:07:46.185Z,24.64
2023-04-28T05:08:46.208Z,24.81
2023-04-28T05:09:46.193Z,24.70
2023-04-28T05:10:46.202Z,24.78
2023-04-28T05:11:46.202Z,24.74
2023-04-28T05:12:48.794Z,24.85
2023-04-28T05:13:46.215Z,24.65
2023-04-28T05:14:46.158Z,24.80
2023-04-28T05:15:46.204Z,24.85
2023-04-28T05:16:46.146Z,24.81
2023-04-28T05:17:46.187Z,24.70
2023-04-28T05:18:46.130Z,24.82
2023-04-28T05:19:46.134Z,24.84
2023-04-28T05:20:46.112Z,24.71
2023-04-28T05:21:46.117Z,24.66
2023-04-28T05:22:46.128Z,24.87
2023-04-28T05:23:46.105Z,24.81
2023-04-28T05:24:46.080Z,24.83
2023-04-28T05:25:46.071Z,24.78
2023-04-28T05:26:46.089Z,24.81
2023-04-28T05:27:46.057Z,24.68
2023-04-28T05:28:46.052Z,24.82
2023-04-28T05:29:46.083Z,24.75
2023-04-28T05:30:46.070Z,24.71
2023-04-28T05:31:46.080Z,24.81
2023-04-28T05:32:46.071Z,25.15
2023-04-28T05:33:46.052Z,25.25
2023-04-28T05:34:46.042Z,25.58
2023-04-28T05:35:46.032Z,25.52
2023-04-28T05:36:46.007Z,25.77
2023-04-28T05:37:45.982Z,26.14
2023-04-28T05:38:46.035Z,26.27
2023-04-28T05:39:46.065Z,26.55
2023-04-28T05:40:46.003Z,26.59
2023-04-28T05:41:45.952Z,26.38
2023-04-28T05:42:46.573Z,26.41
2023-04-28T05:43:45.957Z,27.11
2023-04-28T05:44:45.965Z,26.68
2023-04-28T05:45:52.956Z,26.56
2023-04-28T05:46:45.999Z,26.15
2023-04-28T05:47:45.948Z,26.24
2023-04-28T05:48:45.916Z,26.34
2023-04-28T05:49:46.096Z,26.77
2023-04-28T05:50:45.915Z,26.95
2023-04-28T05:51:45.918Z,27.21
2023-04-28T05:52:45.891Z,27.69
2023-04-28T05:53:45.877Z,27.76
2023-04-28T05:54:45.889Z,27.82
2023-04-28T05:55:46.144Z,27.92
2023-04-28T05:56:45.853Z,28.14
2023-04-28T05:57:53.111Z,28.28
2023-04-28T05:58:46.826Z,28.29
2023-04-28T05:59:45.852Z,28.44
2023-04-28T06:00:46.084Z,28.45
2023-04-28T06:01:45.848Z,28.69
2023-04-28T06:02:45.991Z,28.72
2023-04-28T06:03:46.091Z,28.88
2023-04-28T06:04:46.272Z,28.95
2023-04-28T06:05:46.288Z,29.15
2023-04-28T06:06:45.760Z,29.29
2023-04-28T06:07:46.529Z,29.26
2023-04-28T06:08:45.791Z,29.30
2023-04-28T06:09:45.751Z,29.44
2023-04-28T06:10:45.768Z,29.45
2023-04-28T06:11:45.722Z,29.71
2023-04-28T06:12:45.730Z,29.75
2023-04-28T06:13:45.844Z,29.77
2023-04-28T06:14:45.955Z,29.89
2023-04-28T06:15:46.059Z,30.06
2023-04-28T06:16:46.103Z,29.94
2023-04-28T06:17:46.236Z,29.97
2023-04-28T06:18:47.332Z,30.11
2023-04-28T06:19:46.401Z,30.18
2023-04-28T06:20:46.331Z,30.30
2023-04-28T06:21:46.432Z,30.38
2023-04-28T06:22:46.432Z,30.48
2023-04-28T06:23:46.458Z,30.50
2023-04-28T06:24:46.537Z,30.65
2023-04-28T06:25:46.574Z,30.78
2023-04-28T06:26:46.624Z,30.93
2023-04-28T06:27:46.712Z,31.05
2023-04-28T06:28:46.787Z,31.19
2023-04-28T06:29:46.807Z,31.19
2023-04-28T06:30:46.890Z,31.35
2023-04-28T06:31:47.168Z,31.47
2023-04-28T06:32:47.056Z,31.45
2023-04-28T06:33:47.108Z,31.72
2023-04-28T06:34:47.136Z,31.62
2023-04-28T06:35:47.589Z,31.91
2023-04-28T06:36:47.311Z,31.81
2023-04-28T06:37:47.298Z,31.72
2023-04-28T06:38:47.393Z,31.93
2023-04-28T06:39:47.420Z,31.88
2023-04-28T06:40:47.511Z,31.61
2023-04-28T06:41:47.621Z,32.08
2023-04-28T06:42:47.651Z,31.83
2023-04-28T06:43:47.692Z,31.63
2023-04-28T06:44:48.038Z,31.87
2023-04-28T06:45:48.157Z,31.97
2023-04-28T06:46:47.882Z,31.82
2023-04-28T06:47:47.988Z,31.85
2023-04-28T06:48:48.000Z,31.98
2023-04-28T06:49:48.043Z,32.05
2023-04-28T06:50:48.623Z,32.22
2023-04-28T06:51:48.170Z,31.92
2023-04-28T06:52:48.309Z,32.07
2023-04-28T06:53:48.299Z,32.28
2023-04-28T06:54:48.348Z,32.19
2023-04-28T06:55:48.610Z,32.29
2023-04-28T06:56:48.466Z,32.34
2023-04-28T06:57:48.599Z,32.32
2023-04-28T06:58:48.599Z,32.52
2023-04-28T06:59:48.633Z,32.56
2023-04-28T07:00:50.055Z,32.56
2023-04-28T07:01:48.950Z,32.62
2023-04-28T07:02:48.964Z,32.73
2023-04-28T07:03:49.285Z,32.89
2023-04-28T07:04:48.968Z,33.24
2023-04-28T07:05:48.996Z,33.25
2023-04-28T07:06:49.043Z,33.23
2023-04-28T07:07:49.098Z,33.29
2023-04-28T07:08:49.155Z,33.30
2023-04-28T07:09:49.210Z,33.38
2023-04-28T07:10:49.273Z,33.50
2023-04-28T07:11:49.334Z,33.52
2023-04-28T07:12:49.370Z,33.70
2023-04-28T07:13:49.471Z,33.74
2023-04-28T07:14:49.461Z,33.72
2023-04-28T07:15:49.513Z,33.92
2023-04-28T07:16:49.606Z,34.12
2023-04-28T07:17:49.640Z,33.93
2023-04-28T07:18:49.650Z,33.80
2023-04-28T07:19:49.675Z,33.86
2023-04-28T07:20:49.728Z,33.76
2023-04-28T07:21:49.817Z,33.76
2023-04-28T07:22:49.827Z,33.93
2023-04-28T07:23:49.840Z,33.75
2023-04-28T07:24:49.950Z,33.67
2023-04-28T07:25:50.008Z,33.96
2023-04-28T07:26:50.005Z,33.97
2023-04-28T07:27:50.031Z,33.58
2023-04-28T07:28:50.070Z,34.16
2023-04-28T07:29:50.095Z,34.13
2023-04-28T07:30:50.619Z,34.16
2023-04-28T07:31:50.229Z,34.35
2023-04-28T07:32:50.221Z,33.76
2023-04-28T07:33:50.264Z,32.64
2023-04-28T07:34:50.268Z,31.50
2023-04-28T07:35:50.640Z,30.91
2023-04-28T07:36:50.387Z,31.18
2023-04-28T07:37:50.517Z,31.27
2023-04-28T07:38:50.580Z,30.81
2023-04-28T07:39:50.644Z,30.80
2023-04-28T07:41:50.746Z,30.56
2023-04-28T07:42:50.766Z,29.95
2023-04-28T07:43:50.838Z,28.76
2023-04-28T07:44:50.871Z,29.86
2023-04-28T07:45:51.161Z,30.44
2023-04-28T07:46:52.147Z,30.23
2023-04-28T07:47:50.961Z,29.96
2023-04-28T07:48:50.918Z,30.37
2023-04-28T07:49:50.915Z,29.45
2023-04-28T07:50:50.943Z,30.87
2023-04-28T07:51:50.944Z,31.11
2023-04-28T07:52:51.008Z,31.53
2023-04-28T07:53:51.080Z,31.76
2023-04-28T07:54:51.168Z,31.97
2023-04-28T07:55:51.198Z,32.01
2023-04-28T07:56:51.234Z,32.12
2023-04-28T07:57:51.265Z,32.18
2023-04-28T07:58:51.373Z,31.97
2023-04-28T07:59:51.414Z,32.37
2023-04-28T08:00:51.479Z,30.98
2023-04-28T08:01:51.626Z,31.41
2023-04-28T08:02:51.913Z,31.23
2023-04-28T08:03:51.842Z,30.84
2023-04-28T08:04:51.862Z,30.63
2023-04-28T08:05:52.887Z,31.03
2023-04-28T08:06:52.119Z,30.56
2023-04-28T08:07:51.718Z,30.73
2023-04-28T08:08:51.700Z,30.81
2023-04-28T08:09:53.312Z,30.24
2023-04-28T08:10:51.672Z,30.69
2023-04-28T08:11:52.210Z,30.96
2023-04-28T08:12:51.654Z,31.08
2023-04-28T08:13:51.687Z,30.39
2023-04-28T08:14:51.765Z,30.66
2023-04-28T08:15:51.834Z,30.70
2023-04-28T08:16:52.122Z,30.68
2023-04-28T08:17:51.987Z,29.98
2023-04-28T08:18:52.069Z,30.43
2023-04-28T08:19:52.079Z,29.72
2023-04-28T08:20:52.154Z,29.98
2023-04-28T08:21:52.200Z,30.68
2023-04-28T08:22:52.355Z,30.57
2023-04-28T08:23:52.617Z,30.94
2023-04-28T08:24:52.428Z,30.92
2023-04-28T08:25:52.501Z,31.02
2023-04-28T08:26:52.648Z,31.11
2023-04-28T08:27:52.566Z,31.05
2023-04-28T08:28:52.633Z,31.19
2023-04-28T08:29:52.695Z,31.19
2023-04-28T08:30:52.729Z,30.78
2023-04-28T08:31:53.055Z,31.28
2023-04-28T08:32:52.896Z,30.69
2023-04-28T08:33:54.327Z,29.55
2023-04-28T08:34:52.989Z,30.17
2023-04-28T08:35:53.064Z,30.28
2023-04-28T08:36:53.143Z,29.34
2023-04-28T08:37:53.185Z,28.87
2023-04-28T08:38:53.221Z,28.48
2023-04-28T08:39:53.225Z,28.44
2023-04-28T08:40:53.217Z,27.52
2023-04-28T08:41:53.208Z,27.38
2023-04-28T08:42:53.332Z,27.52
2023-04-28T08:43:53.235Z,27.70
2023-04-28T08:44:53.332Z,27.94
2023-04-28T08:45:53.321Z,28.17
2023-04-28T08:46:54.069Z,28.29
2023-04-28T08:47:53.313Z,29.11
2023-04-28T08:48:53.272Z,28.55
2023-04-28T08:49:53.257Z,28.03
2023-04-28T08:50:53.285Z,29.91
2023-04-28T08:51:53.660Z,29.74
2023-04-28T08:52:53.587Z,29.69
2023-04-28T08:54:53.402Z,29.94
2023-04-28T08:55:53.472Z,29.70
2023-04-28T08:56:53.402Z,29.65
2023-04-28T08:57:54.232Z,29.79
2023-04-28T08:58:53.467Z,30.11
2023-04-28T08:59:53.437Z,30.14
2023-04-28T09:00:53.427Z,30.03
2023-04-28T09:01:53.924Z,30.42
2023-04-28T09:02:53.625Z,30.13
2023-04-28T09:03:53.539Z,30.23
2023-04-28T09:04:53.542Z,30.17
2023-04-28T09:05:53.370Z,30.32
2023-04-28T09:06:53.352Z,30.48
2023-04-28T09:07:53.675Z,30.78
2023-04-28T09:08:53.377Z,30.79
2023-04-28T09:09:53.270Z,30.63
2023-04-28T09:10:53.304Z,30.87
2023-04-28T09:11:53.246Z,30.69
2023-04-28T09:12:53.374Z,30.47
2023-04-28T09:13:53.245Z,30.65
2023-04-28T09:14:53.249Z,30.24
2023-04-28T09:15:53.230Z,30.51
2023-04-28T09:16:53.332Z,30.59
2023-04-28T09:17:53.353Z,30.45
2023-04-28T09:18:53.416Z,30.80
2023-04-28T09:19:53.448Z,30.83
2023-04-28T09:20:53.448Z,30.74
2023-04-28T09:21:53.568Z,30.91
2023-04-28T09:22:53.597Z,30.67
2023-04-28T09:23:53.614Z,30.43
2023-04-28T09:24:54.580Z,30.95
2023-04-28T09:25:53.699Z,30.91
2023-04-28T09:26:55.437Z,31.04
2023-04-28T09:27:53.757Z,30.04
2023-04-28T09:28:53.816Z,30.19
2023-04-28T09:29:53.834Z,30.56
2023-04-28T09:30:53.880Z,30.43
2023-04-28T09:31:53.877Z,30.80
2023-04-28T09:32:54.035Z,30.79
2023-04-28T09:33:53.907Z,30.41
2023-04-28T09:34:54.175Z,30.51
2023-04-28T09:35:53.988Z,30.49
2023-04-28T09:36:53.993Z,30.53
2023-04-28T09:37:54.105Z,30.25
2023-04-28T09:38:55.079Z,31.45
2023-04-28T09:39:54.145Z,31.04
2023-04-28T09:40:54.108Z,31.92
2023-04-28T09:41:54.181Z,31.80
2023-04-28T09:42:54.165Z,31.78
2023-04-28T09:43:54.077Z,32.39
2023-04-28T09:44:54.134Z,32.41
2023-04-28T09:45:54.177Z,32.37
2023-04-28T09:46:54.154Z,32.46
2023-04-28T09:47:54.724Z,31.92
2023-04-28T09:48:54.230Z,31.75
2023-04-28T09:49:54.317Z,32.48
2023-04-28T09:50:54.388Z,32.30
2023-04-28T09:51:54.450Z,32.36
2023-04-28T09:52:54.503Z,32.01
2023-04-28T09:53:54.505Z,31.96
2023-04-28T09:54:54.579Z,31.97
2023-04-28T09:55:54.623Z,31.72
2023-04-28T09:56:54.676Z,31.66
2023-04-28T09:57:54.760Z,31.09
2023-04-28T09:58:54.793Z,30.88
2023-04-28T09:59:54.806Z,31.09
2023-04-28T10:00:54.889Z,30.77
2023-04-28T10:01:54.909Z,31.48
2023-04-28T10:02:55.088Z,31.30
2023-04-28T10:03:55.055Z,30.81
2023-04-28T10:04:55.215Z,31.21
2023-04-28T10:05:55.023Z,30.48
2023-04-28T10:06:55.026Z,30.72
2023-04-28T10:07:55.217Z,30.15
2023-04-28T10:08:55.139Z,30.93
2023-04-28T10:09:55.169Z,30.38
2023-04-28T10:10:55.182Z,30.89
2023-04-28T10:11:55.257Z,30.25
2023-04-28T10:12:55.315Z,30.89
2023-04-28T10:13:55.343Z,30.85
2023-04-28T10:14:55.365Z,31.10
2023-04-28T10:15:55.534Z,30.85
2023-04-28T10:16:55.427Z,30.76
2023-04-28T10:17:55.732Z,31.05
2023-04-28T10:18:55.489Z,31.23
2023-04-28T10:19:55.552Z,30.99
2023-04-28T10:20:55.577Z,30.65
2023-04-28T10:21:55.589Z,30.67
2023-04-28T10:22:55.730Z,30.10
2023-04-28T10:23:55.697Z,30.88
2023-04-28T10:24:55.673Z,30.97
2023-04-28T10:25:55.700Z,31.32
2023-04-28T10:26:55.699Z,31.70
2023-04-28T10:27:56.217Z,31.94
2023-04-28T10:28:55.734Z,32.71
2023-04-28T10:29:55.829Z,32.91
2023-04-28T10:30:56.764Z,32.97
2023-04-28T10:31:55.730Z,32.63
2023-04-28T10:32:55.841Z,32.63
2023-04-28T10:33:56.214Z,32.58
2023-04-28T10:34:55.774Z,32.52
2023-04-28T10:35:55.793Z,32.47
2023-04-28T10:36:55.790Z,32.45
2023-04-28T10:37:55.841Z,32.34
2023-04-28T10:38:56.194Z,32.31
2023-04-28T10:39:55.889Z,32.29
2023-04-28T10:40:55.979Z,32.25
2023-04-28T10:41:56.297Z,32.18
2023-04-28T10:42:56.437Z,32.14
2023-04-28T10:43:58.708Z,32.03
2023-04-28T10:44:56.312Z,32.05
2023-04-28T10:45:57.879Z,32.03
2023-04-28T10:46:56.096Z,31.97
2023-04-28T10:47:56.067Z,31.97
2023-04-28T10:48:56.795Z,31.90
2023-04-28T10:49:56.076Z,31.89
2023-04-28T10:50:56.091Z,31.84
2023-04-28T10:51:56.035Z,31.83
2023-04-28T10:52:56.059Z,31.79
2023-04-28T10:53:56.191Z,31.78
2023-04-28T10:54:56.284Z,31.74
2023-04-28T10:55:56.263Z,31.69
2023-04-28T10:56:56.386Z,31.64
2023-04-28T10:57:56.390Z,31.64
2023-04-28T10:58:56.716Z,31.59
2023-04-28T10:59:56.464Z,31.63
2023-04-28T11:00:56.514Z,31.50
2023-04-28T11:01:56.667Z,31.56
2023-04-28T11:02:56.727Z,31.51
2023-04-28T11:03:56.925Z,31.49
2023-04-28T11:04:56.817Z,31.38
2023-04-28T11:05:56.839Z,31.43
2023-04-28T11:06:56.825Z,31.39
2023-04-28T11:07:59.668Z,31.34
2023-04-28T11:08:57.236Z,31.32
2023-04-28T11:09:56.870Z,31.32
2023-04-28T11:10:56.902Z,31.22
2023-04-28T11:11:56.883Z,31.25
2023-04-28T11:12:56.860Z,31.20
2023-04-28T11:13:56.897Z,31.21
2023-04-28T11:14:56.821Z,31.21
2023-04-28T11:15:56.869Z,31.18
2023-04-28T11:16:56.860Z,31.15
2023-04-28T11:17:56.891Z,31.12
2023-04-28T11:18:56.874Z,31.12
2023-04-28T11:19:56.790Z,31.11
2023-04-28T11:20:56.950Z,31.07
2023-04-28T11:21:56.837Z,31.08
2023-04-28T11:22:56.795Z,31.03
2023-04-28T11:23:57.209Z,30.98
2023-04-28T11:24:56.780Z,30.99
2023-04-28T11:25:56.790Z,30.93
2023-04-28T11:26:56.813Z,30.94
2023-04-28T11:27:56.764Z,30.85
2023-04-28T11:28:57.195Z,30.86
2023-04-28T11:29:56.731Z,30.86
2023-04-28T11:30:56.740Z,30.87
2023-04-28T11:31:56.762Z,30.82
2023-04-28T11:32:56.855Z,30.78
2023-04-28T11:33:57.240Z,30.77
2023-04-28T11:34:56.884Z,30.79
2023-04-28T11:35:56.958Z,30.76
2023-04-28T11:36:57.000Z,30.78
2023-04-28T11:37:57.060Z,30.71
2023-04-28T11:38:57.117Z,30.71
2023-04-28T11:39:57.142Z,30.67
2023-04-28T11:40:57.233Z,30.62
2023-04-28T11:41:57.267Z,30.67
2023-04-28T11:42:58.339Z,30.61
2023-04-28T11:43:57.380Z,30.62
2023-04-28T11:44:57.409Z,30.58
2023-04-28T11:45:57.464Z,30.57
2023-04-28T11:46:57.525Z,30.51
2023-04-28T11:47:57.614Z,30.58
2023-04-28T11:48:57.602Z,30.47
2023-04-28T11:49:57.669Z,30.48
2023-04-28T11:50:57.735Z,30.55
2023-04-28T11:51:57.800Z,30.51
2023-04-28T11:52:57.812Z,30.52
2023-04-28T11:53:57.906Z,30.51
2023-04-28T11:54:57.960Z,30.46
2023-04-28T11:55:58.013Z,30.53
2023-04-28T11:56:58.068Z,30.46
2023-04-28T11:57:58.120Z,30.45
2023-04-28T11:58:58.182Z,30.43
2023-04-28T11:59:58.241Z,30.42
2023-04-28T12:00:58.269Z,30.41
2023-04-28T12:01:58.386Z,30.44
2023-04-28T12:02:58.461Z,30.38
2023-04-28T12:03:58.550Z,30.45
2023-04-28T12:04:58.538Z,30.43
2023-04-28T12:05:58.647Z,30.43
2023-04-28T12:06:58.638Z,30.42
2023-04-28T12:07:58.702Z,30.35
2023-04-28T12:08:58.788Z,30.43
2023-04-28T12:09:58.815Z,30.42
2023-04-28T12:10:58.886Z,30.43
2023-04-28T12:11:58.933Z,30.34
2023-04-28T12:12:58.973Z,30.33
2023-04-28T12:13:59.056Z,30.32
2023-04-28T12:14:59.126Z,30.37
2023-04-28T12:15:59.203Z,30.35
2023-04-28T12:16:59.251Z,30.33
2023-04-28T12:17:59.320Z,30.34
2023-04-28T12:18:59.389Z,30.22
2023-04-28T12:19:59.426Z,30.26
2023-04-28T12:20:59.481Z,30.26
2023-04-28T12:21:59.537Z,30.28
2023-04-28T12:22:59.621Z,30.29
2023-04-28T12:23:59.675Z,30.22
2023-04-28T12:24:59.762Z,30.23
2023-04-28T12:25:59.807Z,30.26
2023-04-28T12:26:59.853Z,30.17
2023-04-28T12:27:59.918Z,30.19
2023-04-28T12:28:59.998Z,30.11
2023-04-28T12:30:00.062Z,30.15
2023-04-28T12:31:00.119Z,30.11
2023-04-28T12:32:00.178Z,30.12
2023-04-28T12:33:00.267Z,30.08
2023-04-28T12:34:00.280Z,30.09
2023-04-28T12:35:00.335Z,30.07
2023-04-28T12:36:00.373Z,30.10
2023-04-28T12:37:00.456Z,30.03
2023-04-28T12:38:00.509Z,30.01
2023-04-28T12:39:00.567Z,29.99
2023-04-28T12:40:00.640Z,29.93
2023-04-28T12:41:00.687Z,29.96
2023-04-28T12:42:00.744Z,29.99
2023-04-28T12:43:00.804Z,29.94
2023-04-28T12:44:00.895Z,29.91
2023-04-28T12:45:00.929Z,29.87
2023-04-28T12:46:00.990Z,29.87
2023-04-28T12:47:01.042Z,29.88
2023-04-28T12:48:01.119Z,29.90
2023-04-28T12:49:01.214Z,29.87
2023-04-28T12:50:01.180Z,29.90
2023-04-28T12:51:01.262Z,29.83
2023-04-28T12:52:01.280Z,29.86
2023-04-28T12:53:01.360Z,29.54
2023-04-28T12:54:01.412Z,29.69
2023-04-28T12:55:01.436Z,29.56